This is the latest recevied weather packets stored in our database for station/object DG6YGE-6. If no packets are shown the sender has not sent any weather packets the latest 10 day(s).
| Time | Temp. | Humidity | Pressure | Rain* | Wind** | Luminosity | Snow |
|---|---|---|---|---|---|---|---|
| 1777724351 | 25.56° C | 43% | 1016 hPa | 0 mm | - | 667 W/m² | - |
| 1777723751 | 25.56° C | 42% | 1016 hPa | 0 mm | - | 740 W/m² | - |
| 1777723152 | 25.56° C | 41% | 1016.2 hPa | 0 mm | - | 717 W/m² | - |
| 1777722551 | 25.56° C | 41% | 1016.4 hPa | 0 mm | - | 748 W/m² | - |
| 1777721951 | 25° C | 43% | 1016.5 hPa | 0 mm | - | 760 W/m² | - |
| 1777721351 | 25° C | 41% | 1016.6 hPa | 0 mm | - | 769 W/m² | - |
| 1777720751 | 24.44° C | 39% | 1016.7 hPa | 0 mm | - | 524 W/m² | - |
| 1777720151 | 24.44° C | 38% | 1016.8 hPa | 0 mm | - | 504 W/m² | - |
| 1777719552 | 25° C | 37% | 1016.9 hPa | 0 mm | - | 562 W/m² | - |
| 1777718951 | 25° C | 39% | 1017 hPa | 0 mm | - | 609 W/m² | - |
| 1777718351 | 25° C | 39% | 1017.1 hPa | 0 mm | - | 699 W/m² | - |
| 1777717751 | 25° C | 39% | 1017.2 hPa | 0 mm | - | 736 W/m² | - |
| 1777717151 | 24.44° C | 42% | 1017.2 hPa | 0 mm | - | 719 W/m² | - |
| 1777716551 | 24.44° C | 40% | 1017.4 hPa | 0 mm | - | 702 W/m² | - |
| 1777715951 | 23.89° C | 42% | 1017.6 hPa | 0 mm | - | 687 W/m² | - |
| 1777715351 | 23.33° C | 44% | 1017.7 hPa | 0 mm | - | 679 W/m² | - |
| 1777714751 | 23.33° C | 46% | 1017.7 hPa | 0 mm | - | 669 W/m² | - |
| 1777714151 | 23.33° C | 42% | 1017.8 hPa | 0 mm | - | 658 W/m² | - |
| 1777713551 | 22.78° C | 46% | 1017.8 hPa | 0 mm | - | 645 W/m² | - |
| 1777712951 | 22.78° C | 44% | 1017.9 hPa | 0 mm | - | 632 W/m² | - |
| 1777712352 | 22.78° C | 45% | 1018 hPa | 0 mm | - | 618 W/m² | - |
| 1777711751 | 22.22° C | 50% | 1018.1 hPa | 0 mm | - | 600 W/m² | - |
| 1777711151 | 21.67° C | 51% | 1018.3 hPa | 0 mm | - | 584 W/m² | - |
| 1777710551 | 21.11° C | 51% | 1018.2 hPa | 0 mm | - | 568 W/m² | - |
| 1777709951 | 20.56° C | 53% | 1018.2 hPa | 0 mm | - | 548 W/m² | - |
* Rain latest hour (hover to see other rain measurements)
** Current wind speed in m/s (hover to see current wind gust speed)